ADDS TAF Board (Experimental) INFO Settings

IDs: Format: Expanded Condensed

KDFW - Dallas-Ft Worth Intl, TX, US

Issued at 0250 UTC 28 Mar 2015
Updated at: 0920 UTC 28 Mar 2015
Time0853Z 28/10Z 28/11Z 28/12Z 28/13Z 28/14Z 28/15Z 28/16Z 28/17Z 28/18Z 28/19Z 28/20Z 28/21Z 28/22Z
Type OBS PRVL PRVL PRVL PRVL PRVL PRVL PRVL PRVL PRVL PRVL PRVL PRVL PRVL
VIS 10 >6 >6 >6 >6 >6 >6 >6 >6 >6 >6 >6 >6 >6
CIG -- 300 300 -- -- -- -- -- -- -- -- -- -- --
Cover FEW BKN BKN SCT SCT SCT SCT SCT SCT SCT SCT SCT SCT SCT
FltCat VFR VFR VFR VFR VFR VFR VFR VFR VFR VFR VFR VFR VFR VFR
WX -- -- -- -- -- -- -- -- -- -- -- -- -- --
WDir 140 110 110 160 160 160 160 160 160 190 190 190 190 190
WSpd 5 6 6 7 7 7 7 7 7 12 12 12 12 12
WGst -- -- -- -- -- -- -- -- -- -- -- -- -- --
R13/31
XWnd -0 3 3 -3 -3 -3 -3 -3 -3 -10 -10 -10 -10 -10
HWnd 5 5 5 6 6 6 6 6 6 7 7 7 7 7
R17/35
XWnd 3 6 6 2 2 2 2 2 2 -2 -2 -2 -2 -2
HWnd 4 2 2 7 7 7 7 7 7 12 12 12 12 12
R18/36
XWnd 3 6 6 2 2 2 2 2 2 -2 -2 -2 -2 -2
HWnd 4 2 2 7 7 7 7 7 7 12 12 12 12 12

NOTE: TEMPO conditions in [brackets]. Keep in mind TEMPO conditions might be better (lower impact) than prevailing conditions.

Raw TAF
KDFW 280250Z 2803/2906 06006KT P6SM BKN300
  FM280600 11006KT P6SM BKN300
  FM281200 16007KT P6SM SCT150 SCT300
  FM281800 19012KT P6SM SCT120


Raw METAR
KDFW 280853Z 14005KT 10SM FEW300 08/04 A3009 RMK AO2 SLP187 T00830039 58021
KDFW 280753Z 18007KT 10SM SCT300 09/04 A3012 RMK AO2 SLP195 T00940039
KDFW 280653Z 13003KT 10SM SCT300 11/04 A3015 RMK AO2 SLP207 T01060039

METAR Board
Radar Display
Forecast Discussion

TAF Board Legend

Potential Impact
Threat None Slight Moderate High
Visibility (sm) ≥5.1 5.1>X≥3 3>X≥1 <1
Ceiling (100 ft) ≥30.1 30.1>X≥10 10>X≥5 <5
Wind Speed (kt) <10 10≤X<20 20≤X<30 ≥30
Wind Gust (kt) <15 15≤X<25 25≤X<35 ≥35
Weather No Wx Reported VCTS,-TS,-FZRA,SN TS,FZRA +TS,+FZRA,+SN